Terminal Aerodrome Forecast
Issued by NWS Central Illinois

Home | Current Version | Previous Version | Text Only | Print | Product List | Glossary On
Versions: 1 2 3 4 5 6 7 8 9 10 11 12 13 14 15 16 17 18 19 20 21 22 23 24 25 26 27 28 29 30 31 32 33 34 35
000
FTUS43 KILX 172333
TAFSPI
TAF
KSPI 172333Z 1800/1824 28010KT P6SM OVC010
     FM180300 27008KT P6SM OVC008
     FM180800 28006KT 3SM BR OVC006
     FM181400 27004KT 5SM BR BKN012
     FM181600 24004KT P6SM SCT025=

USA.gov is the U.S. government's official web portal to all federal, state and local government web resources and services.